map of MEO home
MEO - Airport
Location
City:  Manteo, North Carolina, United States
Name:Dare County Regional
ICAO:KMQI
IATA:MEO
FAA LID:MQI

Details
Type:Airport (Airfield)
Use:Public/Civil
Latitude:3555'08"N (35.918983)
Longitude:7541'44"W (-75.695535)
Datum:WGS 1984
Elevation:13 ft (4 m)
Variation:11.01W (WMM2015 magnetic declination)
-0.02 annual change
Runways:2
Longest:4305 × 100 ft (1312 × 30.5 m), paved

Time
Time Zone:UTC-5 (DST-4)
Local Time:

Weather
METAR:KMQI 211905Z AUTO 23015G18KT 10SM SCT035 BKN043 BKN050 31/24 A2996 RMK AO2 T03100236

Related Locations
Nearby:
Farthest:YAUG: 11819 mi / 19021 km
Augusta [Augusta Airport], WA, AU

Find:

   beyond  
but within

Other Information
Maps:
NOTAMs:
Links:
Sources:

  
  • flag of United States
  • flag of North Carolina
  

Airport Diagram

Airport diagram for MEO

Airport diagram PDF

Sectional Chart

Flight Planning
at skyvector.com

Satellite Image

Google Maps Satellite view

 

Copyright © 2004-2018 Karl L. Swartz. All rights reserved.
The Great Circle Mapper name and logo are trademarks of the Great Circle Mapper.
All other trademarks mentioned herein belong to their respective owners.
Please see credits for attibutions and further copyright information.

  Follow gcmap on Facebook Follow gcmap on Twitter Follow gcmap on Google+ GCmap on LinkedIn

hCard Microformat

Geo Microformat